Hlavní strana
METAR-TAF:

METAR-TAF

Letiště :

Terst / Ronchi dei Legionari, Itálie

zeměpisná šířka: 45-49N, zeměpisná délka: 013-29E, výška: 12 m

Aktuální stav počasí

Zpráva byla vytvořena před 38 minutami, v 04:20 UTC
Severoseverovýchodní vítr 6 kt
Teplota 5°C
Vlhkost vzduchu 100%
Tlak 1017 hPa
Viditelnost: 4000 m
slabý déšť, kouřmo

METAR: LIPQ 180420Z AUTO 02006KT 4000 -RA BR BKN034/// OVC052/// 05/05 Q1017

Čas: 05:58 (04:58 UTC)

Předpověď počasí

Zpráva byla vytvořena před 5 hodinami a 58 minutami, v 23:00 UTC
Předpověď platná od 18 v 00 UTC do 18 v 24 UTC
vítr z různých směrů 5 kt
Viditelnost: 6000 m
Oblačno až skoro zataženo ve výšce 2500 ft
Dočasný
od 18 v 00 UTC do 18 v 12 UTC
Viditelnost: 2000 m
déšť
Změna
od 18 v 04 UTC do 18 v 06 UTC
Východoseverovýchodní vítr 12 kt

TAF: LIPQ 172300Z 1800/1824 VRB05KT 6000 BKN025 TEMPO 1800/1812 2000 RA BECMG 1804/1806 06012KT

Stav a předpovědi počasí z více než 4 000 letišť (zprávy METAR a TAF).

Červené a žluté tečky na mapě představují dostupné meteorologické stanice.

Když kurzor umístíte na tečku, zobrazí se název stanice.

Pak kliknutím zobrazíte stav a předpověď počasí.

Chcete-li změnit mapu, kliknutím na zelené tlačítko se znaménkem +mapu přiblížíte, kliknutím na zelené tlačítko se znaménkem – mapu oddálíte a kliknutím na zelené šipky přejdete na sousední mapy.


METAR-TAF: